createdAt,value
2019-03-08T00:00:35.351Z,0.00
2019-03-08T00:01:35.330Z,0.00
2019-03-08T00:02:35.310Z,0.00
2019-03-08T00:03:35.291Z,0.00
2019-03-08T00:04:35.263Z,0.00
2019-03-08T00:05:35.247Z,0.00
2019-03-08T00:06:35.221Z,0.00
2019-03-08T00:07:35.199Z,0.00
2019-03-08T00:08:35.181Z,0.00
2019-03-08T00:09:35.158Z,0.00
2019-03-08T00:10:35.138Z,0.00
2019-03-08T00:11:35.115Z,0.00
2019-03-08T00:12:35.092Z,0.00
2019-03-08T00:13:35.082Z,0.00
2019-03-08T00:14:35.062Z,0.00
2019-03-08T00:15:35.031Z,0.00
2019-03-08T00:16:35.015Z,0.00
2019-03-08T00:17:34.996Z,0.00
2019-03-08T00:18:34.965Z,0.00
2019-03-08T00:19:34.951Z,0.00
2019-03-08T00:20:34.927Z,0.00
2019-03-08T00:21:34.908Z,0.00
2019-03-08T00:22:34.887Z,0.00
2019-03-08T00:23:34.866Z,0.00
2019-03-08T00:24:34.846Z,0.00
2019-03-08T00:25:34.824Z,0.00
2019-03-08T00:26:34.808Z,0.00
2019-03-08T00:27:34.788Z,0.00
2019-03-08T00:28:34.758Z,0.00
2019-03-08T00:29:34.738Z,0.00
2019-03-08T00:30:34.722Z,0.00
2019-03-08T00:31:34.698Z,0.00
2019-03-08T00:32:34.673Z,0.00
2019-03-08T00:33:34.652Z,0.00
2019-03-08T00:34:34.633Z,0.00
2019-03-08T00:35:34.614Z,0.00
2019-03-08T00:36:34.591Z,0.00
2019-03-08T00:37:34.573Z,0.00
2019-03-08T00:38:34.551Z,0.00
2019-03-08T00:39:34.526Z,0.00
2019-03-08T00:40:34.506Z,0.00
2019-03-08T00:41:34.482Z,0.00
2019-03-08T00:42:34.464Z,0.00
2019-03-08T00:43:34.445Z,0.00
2019-03-08T00:44:34.427Z,0.00
2019-03-08T00:45:34.400Z,0.00
2019-03-08T00:46:34.376Z,0.00
2019-03-08T00:47:34.358Z,0.00
2019-03-08T00:48:34.350Z,0.00
2019-03-08T00:49:34.318Z,0.00
2019-03-08T00:50:34.286Z,0.00
2019-03-08T00:51:34.275Z,0.00
2019-03-08T00:52:34.257Z,0.00
2019-03-08T00:53:34.238Z,0.00
2019-03-08T00:54:34.211Z,0.00
2019-03-08T00:55:34.192Z,0.00
2019-03-08T00:56:34.171Z,0.00
2019-03-08T00:57:34.147Z,0.00
2019-03-08T00:58:34.121Z,0.00
2019-03-08T00:59:34.102Z,0.00
2019-03-08T01:00:34.083Z,0.00
2019-03-08T01:01:34.056Z,0.00
2019-03-08T01:02:35.808Z,0.00
2019-03-08T01:03:34.018Z,0.00
2019-03-08T01:04:33.994Z,0.00
2019-03-08T01:05:33.972Z,0.00
2019-03-08T01:06:33.954Z,0.00
2019-03-08T01:07:33.938Z,0.00
2019-03-08T01:08:34.069Z,0.00
2019-03-08T01:09:33.888Z,0.00
2019-03-08T01:10:33.868Z,0.00
2019-03-08T01:11:33.850Z,0.00
2019-03-08T01:12:33.826Z,0.00
2019-03-08T01:13:33.808Z,0.00
2019-03-08T01:14:33.786Z,0.00
2019-03-08T01:15:33.765Z,0.00
2019-03-08T01:16:33.741Z,0.00
2019-03-08T01:17:33.720Z,0.00
2019-03-08T01:18:33.702Z,0.00
2019-03-08T01:19:33.679Z,0.00
2019-03-08T01:20:33.655Z,0.00
2019-03-08T01:21:33.636Z,0.00
2019-03-08T01:22:33.616Z,0.00
2019-03-08T01:23:33.593Z,0.00
2019-03-08T01:24:33.570Z,0.00
2019-03-08T01:25:33.551Z,0.00
2019-03-08T01:26:33.525Z,0.00
2019-03-08T01:27:33.508Z,0.00
2019-03-08T01:28:33.484Z,0.00
2019-03-08T01:29:33.460Z,0.00
2019-03-08T01:30:33.440Z,0.00
2019-03-08T01:31:33.431Z,0.00
2019-03-08T01:32:33.402Z,0.00
2019-03-08T01:33:33.379Z,0.00
2019-03-08T01:34:33.359Z,0.00
2019-03-08T01:35:33.337Z,0.00
2019-03-08T01:36:33.317Z,0.00
2019-03-08T01:37:33.291Z,0.00
2019-03-08T01:38:33.284Z,0.00
2019-03-08T01:39:33.258Z,0.00
2019-03-08T01:40:33.228Z,0.00
2019-03-08T01:41:33.209Z,0.00
2019-03-08T01:42:33.184Z,0.00
2019-03-08T01:43:33.168Z,0.00
2019-03-08T01:44:33.919Z,0.00
2019-03-08T01:45:33.134Z,0.00
2019-03-08T01:46:33.099Z,0.00
2019-03-08T01:47:33.078Z,0.00
2019-03-08T01:48:33.063Z,0.00
2019-03-08T01:49:33.041Z,0.00
2019-03-08T01:50:33.021Z,0.00
2019-03-08T01:51:32.995Z,0.00
2019-03-08T01:52:32.975Z,0.00
2019-03-08T01:53:32.957Z,0.00
2019-03-08T01:54:32.932Z,0.00
2019-03-08T01:55:32.911Z,0.00
2019-03-08T01:56:32.892Z,0.00
2019-03-08T01:57:32.887Z,0.00
2019-03-08T01:58:32.867Z,0.00
2019-03-08T01:59:32.832Z,0.00
2019-03-08T02:00:32.803Z,0.00
2019-03-08T02:01:32.785Z,0.00
2019-03-08T02:02:32.762Z,0.00
2019-03-08T02:03:32.743Z,0.00
2019-03-08T02:04:32.725Z,0.00
2019-03-08T02:05:32.697Z,0.00
2019-03-08T02:06:32.679Z,0.00
2019-03-08T02:07:33.291Z,0.00
2019-03-08T02:08:32.639Z,0.00
2019-03-08T02:09:32.615Z,0.00
2019-03-08T02:10:32.591Z,0.00
2019-03-08T02:11:32.567Z,0.00
2019-03-08T02:12:32.545Z,0.00
2019-03-08T02:13:32.523Z,0.00
2019-03-08T02:14:32.503Z,0.00
2019-03-08T02:15:32.492Z,0.00
2019-03-08T02:16:32.465Z,0.00
2019-03-08T02:17:32.441Z,0.00
2019-03-08T02:18:32.422Z,0.00
2019-03-08T02:19:32.400Z,0.00
2019-03-08T02:20:32.379Z,0.00
2019-03-08T02:21:32.351Z,0.00
2019-03-08T02:22:32.332Z,0.00
2019-03-08T02:23:32.309Z,0.00
2019-03-08T02:24:32.295Z,0.00
2019-03-08T02:25:32.271Z,0.00
2019-03-08T02:26:32.251Z,0.00
2019-03-08T02:27:32.227Z,0.00
2019-03-08T02:28:32.209Z,0.00
2019-03-08T02:29:32.187Z,0.00
2019-03-08T02:30:32.164Z,0.00
2019-03-08T02:31:32.146Z,0.00
2019-03-08T02:32:32.120Z,0.00
2019-03-08T02:33:32.100Z,0.00
2019-03-08T02:34:32.075Z,0.00
2019-03-08T02:35:32.059Z,0.00
2019-03-08T02:36:32.040Z,0.00
2019-03-08T02:37:32.016Z,0.00
2019-03-08T02:38:31.999Z,0.00
2019-03-08T02:39:31.969Z,0.00
2019-03-08T02:40:31.949Z,0.00
2019-03-08T02:41:31.928Z,0.00
2019-03-08T02:42:31.905Z,0.00
2019-03-08T02:43:31.887Z,0.00
2019-03-08T02:44:31.863Z,0.00
2019-03-08T02:45:31.840Z,0.00
2019-03-08T02:46:31.819Z,0.00
2019-03-08T02:47:31.805Z,0.00
2019-03-08T02:48:31.780Z,0.00
2019-03-08T02:49:31.757Z,0.00
2019-03-08T02:50:31.735Z,0.00
2019-03-08T02:51:31.717Z,0.00
2019-03-08T02:52:31.710Z,0.00
2019-03-08T02:53:31.674Z,0.00
2019-03-08T02:54:31.649Z,0.00
2019-03-08T02:55:31.624Z,0.00
2019-03-08T02:56:31.608Z,0.00
2019-03-08T02:57:31.589Z,0.00
2019-03-08T02:58:31.574Z,0.00
2019-03-08T02:59:31.542Z,0.00
2019-03-08T03:00:31.520Z,0.00
2019-03-08T03:01:31.502Z,0.00
2019-03-08T03:02:31.476Z,0.00
2019-03-08T03:03:31.455Z,0.00
2019-03-08T03:04:31.437Z,0.00
2019-03-08T03:05:31.414Z,0.00
2019-03-08T03:06:31.392Z,0.00
2019-03-08T03:07:31.374Z,0.00
2019-03-08T03:08:31.351Z,0.00
2019-03-08T03:09:31.329Z,0.00
2019-03-08T03:10:31.308Z,0.00
2019-03-08T03:11:31.286Z,0.00
2019-03-08T03:12:31.262Z,0.00
2019-03-08T03:13:31.245Z,0.00
2019-03-08T03:14:31.218Z,0.00
2019-03-08T03:15:31.198Z,0.00
2019-03-08T03:16:31.182Z,0.00
2019-03-08T03:17:31.160Z,0.00
2019-03-08T03:18:31.135Z,0.00
2019-03-08T03:19:31.112Z,0.00
2019-03-08T03:20:31.101Z,0.00
2019-03-08T03:21:31.072Z,0.00
2019-03-08T03:22:31.054Z,0.00
2019-03-08T03:23:31.029Z,0.00
2019-03-08T03:24:31.012Z,0.00
2019-03-08T03:25:30.986Z,0.00
2019-03-08T03:26:30.962Z,0.00
2019-03-08T03:27:30.944Z,0.00
2019-03-08T03:28:30.922Z,0.00
2019-03-08T03:29:30.899Z,0.00
2019-03-08T03:30:30.883Z,0.00
2019-03-08T03:31:30.860Z,0.00
2019-03-08T03:32:30.837Z,0.00
2019-03-08T03:33:30.832Z,0.00
2019-03-08T03:34:30.797Z,0.00
2019-03-08T03:35:30.769Z,0.00
2019-03-08T03:36:30.754Z,0.00
2019-03-08T03:37:30.728Z,0.00
2019-03-08T03:38:30.710Z,0.00
2019-03-08T03:39:30.684Z,0.00
2019-03-08T03:40:30.669Z,0.00
2019-03-08T03:41:30.643Z,0.00
2019-03-08T03:42:30.631Z,0.00
2019-03-08T03:43:30.604Z,0.00
2019-03-08T03:44:30.578Z,0.00
2019-03-08T03:45:30.563Z,0.00
2019-03-08T03:46:30.536Z,0.00
2019-03-08T03:47:30.514Z,0.00
2019-03-08T03:48:30.497Z,0.00
2019-03-08T03:49:30.470Z,0.00
2019-03-08T03:50:30.450Z,0.00
2019-03-08T03:51:30.432Z,0.00
2019-03-08T03:52:30.411Z,0.00
2019-03-08T03:53:30.387Z,0.00
2019-03-08T03:54:30.366Z,0.00
2019-03-08T03:55:30.342Z,0.00
2019-03-08T03:56:30.323Z,0.00
2019-03-08T03:57:30.304Z,0.00
2019-03-08T03:58:30.283Z,0.00
2019-03-08T03:59:30.258Z,0.00
2019-03-08T04:00:30.240Z,0.00
2019-03-08T04:01:30.221Z,0.00
2019-03-08T04:02:30.204Z,0.00
2019-03-08T04:03:30.179Z,0.00
2019-03-08T04:04:30.153Z,0.00
2019-03-08T04:05:30.131Z,0.00
2019-03-08T04:06:30.111Z,0.00
2019-03-08T04:07:30.091Z,0.00
2019-03-08T04:08:30.068Z,0.00
2019-03-08T04:09:30.047Z,0.00
2019-03-08T04:10:30.024Z,0.00
2019-03-08T04:11:30.003Z,0.00
2019-03-08T04:12:29.981Z,0.00
2019-03-08T04:13:29.965Z,0.00
2019-03-08T04:14:29.942Z,0.00
2019-03-08T04:15:29.926Z,0.00
2019-03-08T04:16:29.896Z,0.00
2019-03-08T04:17:29.877Z,0.00
2019-03-08T04:18:29.856Z,0.00
2019-03-08T04:19:29.837Z,0.00
2019-03-08T04:20:29.817Z,0.00
2019-03-08T04:21:29.797Z,0.00
2019-03-08T04:22:29.773Z,0.00
2019-03-08T04:23:29.749Z,0.00
2019-03-08T04:24:29.727Z,0.00
2019-03-08T04:25:29.705Z,0.00
2019-03-08T04:26:29.685Z,0.00
2019-03-08T04:27:29.667Z,0.00
2019-03-08T04:28:29.645Z,0.00
2019-03-08T04:29:29.628Z,0.00
2019-03-08T04:30:29.602Z,0.00
2019-03-08T04:31:29.585Z,0.00
2019-03-08T04:32:29.559Z,0.00
2019-03-08T04:33:29.538Z,0.00
2019-03-08T04:34:29.514Z,0.00
2019-03-08T04:35:29.493Z,0.00
2019-03-08T04:36:30.338Z,0.00
2019-03-08T04:37:29.458Z,0.00
2019-03-08T04:38:29.430Z,0.00
2019-03-08T04:39:29.412Z,0.00
2019-03-08T04:40:29.391Z,0.00
2019-03-08T04:41:29.369Z,0.00
2019-03-08T04:42:29.345Z,0.00
2019-03-08T04:43:29.325Z,0.00
2019-03-08T04:44:29.303Z,0.00
2019-03-08T04:45:29.290Z,0.00
2019-03-08T04:46:29.261Z,0.00
2019-03-08T04:47:29.243Z,0.00
2019-03-08T04:48:29.220Z,0.00
2019-03-08T04:49:29.199Z,0.00
2019-03-08T04:50:29.173Z,0.00
2019-03-08T04:51:29.158Z,0.00
2019-03-08T04:52:29.134Z,0.00
2019-03-08T04:53:29.112Z,0.00
2019-03-08T04:54:29.094Z,0.00
2019-03-08T04:55:29.067Z,0.00
2019-03-08T04:56:29.047Z,0.00
2019-03-08T04:57:29.026Z,0.00
2019-03-08T04:58:29.009Z,0.00
2019-03-08T04:59:28.986Z,0.00
2019-03-08T05:00:28.970Z,0.00
2019-03-08T05:01:28.942Z,0.00
2019-03-08T05:02:28.923Z,0.00
2019-03-08T05:03:28.900Z,0.00
2019-03-08T05:04:28.876Z,0.00
2019-03-08T05:05:28.859Z,0.00
2019-03-08T05:06:28.838Z,0.00
2019-03-08T05:07:28.812Z,0.00
2019-03-08T05:08:28.795Z,4.00
2019-03-08T05:09:28.780Z,0.00
2019-03-08T05:10:28.752Z,0.00
2019-03-08T05:11:28.728Z,0.00
2019-03-08T05:12:28.710Z,4.00
2019-03-08T05:13:28.688Z,4.00
2019-03-08T05:14:28.669Z,4.00
2019-03-08T05:15:28.644Z,4.00
2019-03-08T05:16:28.624Z,8.00
2019-03-08T05:17:28.604Z,8.00
2019-03-08T05:18:28.582Z,12.00
2019-03-08T05:19:28.558Z,12.00
2019-03-08T05:20:28.540Z,16.00
2019-03-08T05:21:28.517Z,16.00
2019-03-08T05:22:28.498Z,16.00
2019-03-08T05:23:28.481Z,16.00
2019-03-08T05:24:28.460Z,24.00
2019-03-08T05:25:28.430Z,28.00
2019-03-08T05:26:28.418Z,28.00
2019-03-08T05:27:28.396Z,28.00
2019-03-08T05:28:28.371Z,32.00
2019-03-08T05:29:28.347Z,36.00
2019-03-08T05:30:28.328Z,36.00
2019-03-08T05:31:28.312Z,32.00
2019-03-08T05:32:28.288Z,36.00
2019-03-08T05:33:28.266Z,40.00
2019-03-08T05:34:28.245Z,48.00
2019-03-08T05:35:28.224Z,48.00
2019-03-08T05:36:28.203Z,60.00
2019-03-08T05:37:28.182Z,68.00
2019-03-08T05:38:28.158Z,72.00
2019-03-08T05:39:28.137Z,76.00
2019-03-08T05:40:28.117Z,84.00
2019-03-08T05:41:28.098Z,88.00
2019-03-08T05:42:28.082Z,104.00
2019-03-08T05:43:28.054Z,100.00
2019-03-08T05:44:28.030Z,124.00
2019-03-08T05:45:28.012Z,128.00
2019-03-08T05:46:28.031Z,136.00
2019-03-08T05:47:27.976Z,160.00
2019-03-08T05:48:27.959Z,148.00
2019-03-08T05:49:27.929Z,140.00
2019-03-08T05:50:27.904Z,140.00
2019-03-08T05:51:27.882Z,160.00
2019-03-08T05:52:27.870Z,172.00
2019-03-08T05:53:27.842Z,164.00
2019-03-08T05:54:27.822Z,192.00
2019-03-08T05:55:27.806Z,216.00
2019-03-08T05:56:27.782Z,200.00
2019-03-08T05:57:27.764Z,196.00
2019-03-08T05:58:27.738Z,196.00
2019-03-08T05:59:27.719Z,220.00
2019-03-08T06:00:32.121Z,224.00
2019-03-08T06:01:27.672Z,240.00
2019-03-08T06:02:27.654Z,272.00
2019-03-08T06:03:27.633Z,240.00
2019-03-08T06:04:27.620Z,240.00
2019-03-08T06:05:27.594Z,208.00
2019-03-08T06:06:27.576Z,248.00
2019-03-08T06:07:36.560Z,288.00
2019-03-08T06:08:36.534Z,312.00
2019-03-08T06:09:36.516Z,304.00
2019-03-08T06:10:36.497Z,320.00
2019-03-08T06:11:36.477Z,404.00
2019-03-08T06:12:36.453Z,356.00
2019-03-08T06:13:36.435Z,428.00
2019-03-08T06:14:36.415Z,532.00
2019-03-08T06:15:36.394Z,572.00
2019-03-08T06:16:36.371Z,480.00
2019-03-08T06:17:36.345Z,476.00
2019-03-08T06:18:36.330Z,448.00
2019-03-08T06:19:36.309Z,484.00
2019-03-08T06:20:36.287Z,528.00
2019-03-08T06:21:36.270Z,652.00
2019-03-08T06:22:36.259Z,744.00
2019-03-08T06:23:36.221Z,716.00
2019-03-08T06:24:36.202Z,788.00
2019-03-08T06:25:36.185Z,840.00
2019-03-08T06:26:36.160Z,860.00
2019-03-08T06:27:36.143Z,980.00
2019-03-08T06:28:36.115Z,964.00
2019-03-08T06:29:36.096Z,992.00
2019-03-08T06:30:36.075Z,852.00
2019-03-08T06:31:36.053Z,848.00
2019-03-08T06:32:36.035Z,912.00
2019-03-08T06:33:36.010Z,908.00
2019-03-08T06:34:35.995Z,832.00
2019-03-08T06:35:35.978Z,1028.00
2019-03-08T06:36:35.950Z,1424.00
2019-03-08T06:37:35.933Z,1408.00
2019-03-08T06:38:35.913Z,1592.00
2019-03-08T06:39:35.891Z,1468.00
2019-03-08T06:40:35.868Z,1584.00
2019-03-08T06:41:35.847Z,1132.00
2019-03-08T06:42:35.826Z,1120.00
2019-03-08T06:43:35.809Z,1496.00
2019-03-08T06:44:35.800Z,1400.00
2019-03-08T06:45:35.764Z,1328.00
2019-03-08T06:46:35.742Z,1380.00
2019-03-08T06:47:35.721Z,1416.00
2019-03-08T06:48:35.703Z,2248.00
2019-03-08T06:49:35.680Z,2316.00
2019-03-08T06:50:35.663Z,1884.00
2019-03-08T06:51:35.683Z,1944.00
2019-03-08T06:52:35.619Z,2180.00
2019-03-08T06:53:35.597Z,1468.00
2019-03-08T06:54:35.579Z,1288.00
2019-03-08T06:55:35.560Z,1460.00
2019-03-08T06:56:35.539Z,1192.00
2019-03-08T06:57:35.519Z,1156.00
2019-03-08T06:58:35.493Z,1092.00
2019-03-08T06:59:35.477Z,1344.00
2019-03-08T07:00:35.467Z,1392.00
2019-03-08T07:01:35.441Z,1296.00
2019-03-08T07:02:35.411Z,1208.00
2019-03-08T07:03:35.398Z,1112.00
2019-03-08T07:04:35.423Z,1220.00
2019-03-08T07:05:35.349Z,1244.00
2019-03-08T07:06:35.333Z,1144.00
2019-03-08T07:07:35.312Z,1080.00
2019-03-08T07:08:35.291Z,1144.00
2019-03-08T07:09:35.269Z,928.00
2019-03-08T07:10:35.246Z,800.00
2019-03-08T07:11:35.236Z,772.00
2019-03-08T07:12:35.209Z,708.00
2019-03-08T07:13:35.197Z,500.00
2019-03-08T07:14:35.168Z,728.00
2019-03-08T07:15:35.152Z,684.00
2019-03-08T07:16:35.121Z,660.00
2019-03-08T07:17:35.101Z,660.00
2019-03-08T07:18:35.077Z,656.00
2019-03-08T07:19:40.821Z,696.00
2019-03-08T07:20:35.040Z,804.00
2019-03-08T07:21:35.020Z,868.00
2019-03-08T07:22:34.999Z,952.00
2019-03-08T07:23:34.978Z,1036.00
2019-03-08T07:24:34.959Z,888.00
2019-03-08T07:25:34.936Z,956.00
2019-03-08T07:26:34.917Z,896.00
2019-03-08T07:27:34.899Z,792.00
2019-03-08T07:28:34.874Z,816.00
2019-03-08T07:29:34.854Z,908.00
2019-03-08T07:30:34.834Z,1000.00
2019-03-08T07:31:34.812Z,1324.00
2019-03-08T07:32:34.794Z,1472.00
2019-03-08T07:33:34.775Z,1560.00
2019-03-08T07:34:34.755Z,1740.00
2019-03-08T07:35:34.727Z,1772.00
2019-03-08T07:36:34.711Z,1948.00
2019-03-08T07:37:34.690Z,1980.00
2019-03-08T07:38:34.665Z,2080.00
2019-03-08T07:39:34.655Z,1940.00
2019-03-08T07:40:34.627Z,2296.00
2019-03-08T07:41:34.608Z,2008.00
2019-03-08T07:42:34.591Z,1860.00
2019-03-08T07:43:34.563Z,1672.00
2019-03-08T07:44:34.551Z,1752.00
2019-03-08T07:45:34.522Z,1580.00
2019-03-08T07:46:34.502Z,1540.00
2019-03-08T07:47:34.482Z,1584.00
2019-03-08T07:48:34.463Z,1808.00
2019-03-08T07:49:34.446Z,1604.00
2019-03-08T07:50:34.420Z,1724.00
2019-03-08T07:51:34.405Z,1876.00
2019-03-08T07:52:34.384Z,1712.00
2019-03-08T07:53:34.362Z,1816.00
2019-03-08T07:54:34.339Z,2120.00
2019-03-08T07:55:34.321Z,2140.00
2019-03-08T07:56:34.297Z,1860.00
2019-03-08T07:57:34.277Z,1808.00
2019-03-08T07:58:34.257Z,1736.00
2019-03-08T07:59:34.241Z,1784.00
2019-03-08T08:00:34.216Z,2100.00
2019-03-08T08:01:34.191Z,2208.00
2019-03-08T08:02:34.188Z,2936.00
2019-03-08T08:03:34.151Z,2584.00
2019-03-08T08:04:34.133Z,2500.00
2019-03-08T08:05:34.109Z,2860.00
2019-03-08T08:06:34.091Z,3112.00
2019-03-08T08:07:34.075Z,3604.00
2019-03-08T08:08:34.054Z,3172.00
2019-03-08T08:09:34.030Z,3184.00
2019-03-08T08:10:34.010Z,3112.00
2019-03-08T08:11:33.994Z,3288.00
2019-03-08T08:12:33.969Z,2924.00
2019-03-08T08:13:33.950Z,2528.00
2019-03-08T08:14:39.499Z,2320.00
2019-03-08T08:15:33.919Z,2252.00
2019-03-08T08:16:33.890Z,2136.00
2019-03-08T08:17:33.867Z,3100.00
2019-03-08T08:18:33.846Z,2816.00
2019-03-08T08:19:33.825Z,3008.00
2019-03-08T08:20:33.808Z,3772.00
2019-03-08T08:21:33.785Z,3756.00
2019-03-08T08:22:33.766Z,3096.00
2019-03-08T08:23:34.496Z,3324.00
2019-03-08T08:24:33.727Z,3512.00
2019-03-08T08:25:36.729Z,2540.00
2019-03-08T08:26:33.684Z,2248.00
2019-03-08T08:27:33.664Z,3120.00
2019-03-08T08:28:33.659Z,2128.00
2019-03-08T08:29:35.184Z,2628.00
2019-03-08T08:30:33.603Z,2752.00
2019-03-08T08:31:33.584Z,2880.00
2019-03-08T08:32:33.568Z,3752.00
2019-03-08T08:33:33.542Z,2940.00
2019-03-08T08:34:33.534Z,3504.00
2019-03-08T08:35:33.509Z,4108.00
2019-03-08T08:36:33.478Z,3632.00
2019-03-08T08:37:33.460Z,4184.00
2019-03-08T08:38:33.444Z,4684.00
2019-03-08T08:39:33.426Z,5248.00
2019-03-08T08:40:33.398Z,5108.00
2019-03-08T08:41:33.376Z,6308.00
2019-03-08T08:42:33.358Z,5752.00
2019-03-08T08:43:33.335Z,6168.00
2019-03-08T08:44:33.313Z,6316.00
2019-03-08T08:45:33.300Z,6676.00
2019-03-08T08:46:33.275Z,4640.00
2019-03-08T08:47:33.258Z,5436.00
2019-03-08T08:48:33.237Z,6080.00
2019-03-08T08:49:33.222Z,4968.00
2019-03-08T08:50:33.195Z,5584.00
2019-03-08T08:51:33.180Z,6544.00
2019-03-08T08:52:33.156Z,8284.00
2019-03-08T08:53:33.135Z,5504.00
2019-03-08T08:54:33.119Z,7604.00
2019-03-08T08:55:33.103Z,8520.00
2019-03-08T08:56:33.085Z,5932.00
2019-03-08T08:57:33.058Z,6980.00
2019-03-08T08:58:33.041Z,5620.00
2019-03-08T08:59:33.020Z,5484.00
2019-03-08T09:00:32.995Z,5680.00
2019-03-08T09:01:32.981Z,5372.00
2019-03-08T09:02:32.962Z,3596.00
2019-03-08T09:03:32.941Z,3144.00
2019-03-08T09:04:32.920Z,4264.00
2019-03-08T09:05:32.905Z,3952.00
2019-03-08T09:06:32.884Z,3804.00
2019-03-08T09:07:32.863Z,2912.00
2019-03-08T09:08:32.852Z,2712.00
2019-03-08T09:09:32.821Z,2276.00
2019-03-08T09:10:32.802Z,2536.00
2019-03-08T09:11:32.783Z,4912.00
2019-03-08T09:12:32.757Z,3780.00
2019-03-08T09:13:32.744Z,3680.00
2019-03-08T09:14:32.718Z,4416.00
2019-03-08T09:15:32.704Z,5428.00
2019-03-08T09:16:32.677Z,2896.00
2019-03-08T09:17:32.657Z,3868.00
2019-03-08T09:18:32.638Z,3072.00
2019-03-08T09:19:32.623Z,4560.00
2019-03-08T09:20:32.605Z,4848.00
2019-03-08T09:21:32.581Z,4792.00
2019-03-08T09:22:32.569Z,4240.00
2019-03-08T09:23:32.540Z,3568.00
2019-03-08T09:24:32.523Z,3372.00
2019-03-08T09:25:32.504Z,4456.00
2019-03-08T09:26:33.136Z,3496.00
2019-03-08T09:27:32.462Z,3780.00
2019-03-08T09:28:32.442Z,4604.00
2019-03-08T09:29:40.810Z,4324.00
2019-03-08T09:30:32.399Z,3544.00
2019-03-08T09:31:32.396Z,3436.00
2019-03-08T09:32:32.364Z,3992.00
2019-03-08T09:33:32.356Z,4752.00
2019-03-08T09:34:32.343Z,4592.00
2019-03-08T09:35:32.306Z,4948.00
2019-03-08T09:36:32.287Z,2988.00
2019-03-08T09:37:32.263Z,2864.00
2019-03-08T09:38:32.246Z,3020.00
2019-03-08T09:39:32.222Z,2012.00
2019-03-08T09:40:32.205Z,1720.00
2019-03-08T09:41:32.187Z,2040.00
2019-03-08T09:42:32.166Z,3244.00
2019-03-08T09:43:32.155Z,3668.00
2019-03-08T09:44:32.129Z,3108.00
2019-03-08T09:45:32.103Z,2480.00
2019-03-08T09:46:32.084Z,2596.00
2019-03-08T09:47:32.062Z,3304.00
2019-03-08T09:48:32.043Z,2584.00
2019-03-08T09:49:32.029Z,3776.00
2019-03-08T09:50:32.006Z,3244.00
2019-03-08T09:51:31.992Z,4608.00
2019-03-08T09:52:32.598Z,4144.00
2019-03-08T09:53:31.943Z,4116.00
2019-03-08T09:54:31.928Z,5032.00
2019-03-08T09:55:31.904Z,3540.00
2019-03-08T09:56:31.885Z,3940.00
2019-03-08T09:57:31.868Z,4784.00
2019-03-08T09:58:31.848Z,5296.00
2019-03-08T09:59:31.825Z,5108.00
2019-03-08T10:00:31.805Z,4604.00
2019-03-08T10:01:31.788Z,3376.00
2019-03-08T10:02:31.768Z,3452.00
2019-03-08T10:03:31.740Z,2960.00
2019-03-08T10:04:31.721Z,2696.00
2019-03-08T10:05:31.700Z,3364.00
2019-03-08T10:06:31.680Z,2504.00
2019-03-08T10:07:31.665Z,2872.00
2019-03-08T10:08:31.642Z,2580.00
2019-03-08T10:09:31.624Z,1956.00
2019-03-08T10:10:31.598Z,2620.00
2019-03-08T10:11:31.582Z,1972.00
2019-03-08T10:12:31.561Z,2228.00
2019-03-08T10:13:31.542Z,2484.00
2019-03-08T10:14:31.517Z,1896.00
2019-03-08T10:15:31.501Z,1896.00
2019-03-08T10:16:31.479Z,2172.00
2019-03-08T10:17:31.454Z,2224.00
2019-03-08T10:18:31.438Z,2452.00
2019-03-08T10:19:31.423Z,2908.00
2019-03-08T10:20:31.398Z,2828.00
2019-03-08T10:21:31.375Z,4080.00
2019-03-08T10:22:31.357Z,2848.00
2019-03-08T10:23:31.331Z,4744.00
2019-03-08T10:24:31.314Z,5412.00
2019-03-08T10:25:31.290Z,5280.00
2019-03-08T10:26:31.271Z,5788.00
2019-03-08T10:27:37.730Z,6020.00
2019-03-08T10:28:31.224Z,5028.00
2019-03-08T10:29:31.213Z,4992.00
2019-03-08T10:30:31.976Z,5900.00
2019-03-08T10:31:31.166Z,4620.00
2019-03-08T10:32:37.279Z,4164.00
2019-03-08T10:33:31.123Z,4024.00
2019-03-08T10:34:31.106Z,2692.00
2019-03-08T10:35:31.081Z,3232.00
2019-03-08T10:36:31.061Z,5208.00
2019-03-08T10:37:31.038Z,2860.00
2019-03-08T10:38:31.020Z,4940.00
2019-03-08T10:39:31.000Z,6192.00
2019-03-08T10:40:30.976Z,6000.00
2019-03-08T10:41:30.956Z,6096.00
2019-03-08T10:42:30.950Z,7320.00
2019-03-08T10:43:30.911Z,6820.00
2019-03-08T10:44:30.902Z,9284.00
2019-03-08T10:45:30.870Z,10680.00
2019-03-08T10:46:30.846Z,9476.00
2019-03-08T10:47:31.208Z,11156.00
2019-03-08T10:48:30.812Z,10360.00
2019-03-08T10:49:30.794Z,8068.00
2019-03-08T10:50:30.772Z,10584.00
2019-03-08T10:51:30.751Z,7836.00
2019-03-08T10:52:30.729Z,12920.00
2019-03-08T10:53:30.702Z,9068.00
2019-03-08T10:54:30.688Z,13460.00
2019-03-08T10:55:30.662Z,12684.00
2019-03-08T10:56:30.644Z,9384.00
2019-03-08T10:57:30.624Z,11196.00
2019-03-08T10:58:30.612Z,12448.00
2019-03-08T10:59:31.401Z,11884.00
2019-03-08T11:00:30.567Z,8160.00
2019-03-08T11:01:30.542Z,10160.00
2019-03-08T11:02:30.520Z,13500.00
2019-03-08T11:03:30.501Z,13396.00
2019-03-08T11:04:30.480Z,12412.00
2019-03-08T11:05:30.458Z,13608.00
2019-03-08T11:06:30.444Z,13088.00
2019-03-08T11:07:30.419Z,13392.00
2019-03-08T11:08:30.411Z,12756.00
2019-03-08T11:09:30.380Z,10432.00
2019-03-08T11:10:30.382Z,8056.00
2019-03-08T11:11:30.343Z,5232.00
2019-03-08T11:12:30.327Z,8240.00
2019-03-08T11:13:30.301Z,7356.00
2019-03-08T11:14:30.285Z,4564.00
2019-03-08T11:15:30.275Z,3472.00
2019-03-08T11:16:30.270Z,2880.00
2019-03-08T11:17:30.223Z,2108.00
2019-03-08T11:18:30.204Z,1552.00
2019-03-08T11:19:30.193Z,1920.00
2019-03-08T11:20:30.164Z,1916.00
2019-03-08T11:21:31.147Z,2148.00
2019-03-08T11:22:30.130Z,2792.00
2019-03-08T11:23:30.104Z,6020.00
2019-03-08T11:24:30.083Z,5544.00
2019-03-08T11:25:34.948Z,5208.00
2019-03-08T11:26:30.043Z,4628.00
2019-03-08T11:27:30.022Z,4068.00
2019-03-08T11:28:30.007Z,3504.00
2019-03-08T11:29:29.987Z,2956.00
2019-03-08T11:30:29.965Z,2544.00
2019-03-08T11:31:29.948Z,2100.00
2019-03-08T11:32:29.931Z,1956.00
2019-03-08T11:33:29.903Z,2652.00
2019-03-08T11:34:29.883Z,5728.00
2019-03-08T11:35:29.876Z,6984.00
2019-03-08T11:36:29.839Z,6276.00
2019-03-08T11:37:29.823Z,4576.00
2019-03-08T11:38:29.797Z,5708.00
2019-03-08T11:39:29.779Z,7040.00
2019-03-08T11:40:29.765Z,7208.00
2019-03-08T11:41:29.744Z,7472.00
2019-03-08T11:42:30.232Z,5496.00
2019-03-08T11:43:29.697Z,6532.00
2019-03-08T11:44:29.676Z,8912.00
2019-03-08T11:45:29.658Z,8896.00
2019-03-08T11:46:29.630Z,11288.00
2019-03-08T11:47:29.615Z,9352.00
2019-03-08T11:48:29.589Z,6356.00
2019-03-08T11:49:29.575Z,4332.00
2019-03-08T11:50:29.551Z,4116.00
2019-03-08T11:51:29.532Z,3868.00
2019-03-08T11:52:29.507Z,4396.00
2019-03-08T11:53:29.490Z,4300.00
2019-03-08T11:54:29.715Z,3836.00
2019-03-08T11:55:29.446Z,3044.00
2019-03-08T11:56:29.439Z,2344.00
2019-03-08T11:57:29.409Z,2320.00
2019-03-08T11:58:29.389Z,2192.00
2019-03-08T11:59:29.368Z,2500.00
2019-03-08T12:00:29.341Z,4140.00
2019-03-08T12:01:29.324Z,6832.00
2019-03-08T12:02:37.620Z,9900.00
2019-03-08T12:03:29.287Z,13280.00
2019-03-08T12:04:29.256Z,16504.00
2019-03-08T12:05:29.238Z,20352.00
2019-03-08T12:06:29.215Z,19712.00
2019-03-08T12:07:29.199Z,25024.00
2019-03-08T12:08:29.177Z,23232.00
2019-03-08T12:09:29.161Z,23200.00
2019-03-08T12:10:29.132Z,17120.00
2019-03-08T12:11:29.111Z,22464.00
2019-03-08T12:12:29.093Z,21824.00
2019-03-08T12:13:29.073Z,21184.00
2019-03-08T12:14:29.056Z,20768.00
2019-03-08T12:15:29.029Z,20288.00
2019-03-08T12:16:29.009Z,19744.00
2019-03-08T12:17:28.993Z,18816.00
2019-03-08T12:18:28.966Z,19360.00
2019-03-08T12:19:28.952Z,17760.00
2019-03-08T12:20:28.932Z,17664.00
2019-03-08T12:21:28.918Z,17824.00
2019-03-08T12:22:28.892Z,17152.00
2019-03-08T12:23:28.876Z,17856.00
2019-03-08T12:24:28.851Z,18880.00
2019-03-08T12:25:28.841Z,22336.00
2019-03-08T12:26:28.823Z,24288.00
2019-03-08T12:27:28.793Z,18592.00
2019-03-08T12:28:28.775Z,22720.00
2019-03-08T12:29:28.759Z,13256.00
2019-03-08T12:30:28.739Z,17504.00
2019-03-08T12:31:28.719Z,14532.00
2019-03-08T12:32:28.702Z,14144.00
2019-03-08T12:33:28.682Z,12344.00
2019-03-08T12:34:28.668Z,10596.00
2019-03-08T12:35:28.642Z,14448.00
2019-03-08T12:36:28.630Z,11444.00